createdAt,value
2023-05-05T00:01:00.315Z,1.00
2023-05-05T00:03:27.405Z,18.40
2023-05-05T00:05:57.886Z,99.90
2023-05-05T00:08:24.823Z,99.90
2023-05-05T00:10:55.832Z,99.90
2023-05-05T00:13:23.323Z,1.00
2023-05-05T00:15:54.094Z,1.00
2023-05-05T00:18:21.345Z,1.00
2023-05-05T00:20:48.557Z,1.00
2023-05-05T00:23:19.449Z,5.60
2023-05-05T00:25:46.213Z,25.70
2023-05-05T00:28:14.204Z,99.90
2023-05-05T00:30:41.124Z,99.90
2023-05-05T00:33:07.858Z,99.90
2023-05-05T00:35:35.806Z,99.90
2023-05-05T00:38:02.976Z,99.90
2023-05-05T00:40:29.811Z,99.90
2023-05-05T00:42:56.769Z,99.90
2023-05-05T00:45:23.493Z,99.90
2023-05-05T00:47:53.857Z,99.90
2023-05-05T00:50:29.012Z,1.00
2023-05-05T00:53:06.846Z,1.00
2023-05-05T00:55:34.942Z,99.90
2023-05-05T00:58:03.179Z,99.90
2023-05-05T01:00:30.691Z,99.90
2023-05-05T01:02:57.775Z,99.90
2023-05-05T01:05:25.868Z,1.00
2023-05-05T01:08:24.155Z,1.00
2023-05-05T01:11:01.345Z,99.90
2023-05-05T01:13:46.046Z,99.90
2023-05-05T01:16:25.698Z,99.90
2023-05-05T01:19:14.489Z,99.90
2023-05-05T01:21:46.813Z,99.90
2023-05-05T01:24:30.237Z,27.60
2023-05-05T01:27:12.242Z,3.60
2023-05-05T01:29:47.567Z,99.90
2023-05-05T01:32:19.172Z,1.00
2023-05-05T01:35:01.256Z,99.90
2023-05-05T01:37:43.381Z,29.80
2023-05-05T01:40:12.186Z,1.00
2023-05-05T01:42:42.585Z,99.90
2023-05-05T01:45:11.595Z,99.90
2023-05-05T01:47:39.857Z,1.00
2023-05-05T01:50:10.957Z,99.90
2023-05-05T01:52:47.235Z,2.80
2023-05-05T01:55:15.529Z,99.90
2023-05-05T01:57:44.063Z,1.00
2023-05-05T02:00:11.679Z,1.00
2023-05-05T02:02:40.724Z,99.90
2023-05-05T02:05:08.340Z,99.90
2023-05-05T02:07:35.849Z,1.00
2023-05-05T02:10:04.630Z,8.60
2023-05-05T02:12:32.240Z,91.20
2023-05-05T02:15:01.314Z,99.90
2023-05-05T02:17:29.931Z,99.90
2023-05-05T02:19:58.894Z,99.90
2023-05-05T02:22:25.582Z,93.40
2023-05-05T02:24:52.996Z,1.00
2023-05-05T02:27:24.352Z,1.00
2023-05-05T02:29:57.109Z,1.00
2023-05-05T02:32:39.851Z,1.00
2023-05-05T02:35:22.725Z,1.00
2023-05-05T02:37:59.991Z,99.90
2023-05-05T02:40:30.401Z,99.90
2023-05-05T02:42:59.938Z,99.90
2023-05-05T02:45:28.298Z,1.00
2023-05-05T02:47:55.032Z,35.00
2023-05-05T02:50:25.713Z,97.60
2023-05-05T02:52:55.236Z,88.20
2023-05-05T02:55:22.277Z,96.00
2023-05-05T02:58:04.776Z,99.90
2023-05-05T03:00:36.756Z,99.90
2023-05-05T03:03:22.446Z,99.90
2023-05-05T03:06:05.217Z,99.90
2023-05-05T03:08:42.901Z,99.90
2023-05-05T03:11:18.237Z,99.90
2023-05-05T03:13:48.913Z,99.90
2023-05-05T03:16:18.461Z,99.90
2023-05-05T03:18:46.918Z,99.90
2023-05-05T03:21:14.179Z,99.90
2023-05-05T03:23:41.091Z,99.90
2023-05-05T03:26:07.866Z,99.90
2023-05-05T03:28:34.481Z,99.90
2023-05-05T03:31:01.254Z,99.90
2023-05-05T03:33:28.036Z,1.00
2023-05-05T03:35:54.698Z,1.00
2023-05-05T03:38:21.368Z,1.00
2023-05-05T03:40:47.963Z,1.00
2023-05-05T03:43:14.793Z,1.00
2023-05-05T03:45:41.461Z,1.00
2023-05-05T03:48:09.609Z,1.00
2023-05-05T03:50:38.925Z,1.00
2023-05-05T03:53:05.605Z,1.00
2023-05-05T03:55:32.252Z,1.00
2023-05-05T03:57:58.900Z,1.00
2023-05-05T04:00:25.797Z,1.00
2023-05-05T04:02:52.502Z,1.00
2023-05-05T04:05:19.873Z,1.00
2023-05-05T04:07:49.125Z,1.00
2023-05-05T04:10:15.807Z,1.00
2023-05-05T04:12:42.586Z,1.00
2023-05-05T04:15:09.970Z,1.00
2023-05-05T04:17:36.721Z,1.00
2023-05-05T04:20:03.549Z,1.00
2023-05-05T04:22:30.431Z,1.00
2023-05-05T04:24:57.090Z,1.00
2023-05-05T04:27:26.032Z,1.00
2023-05-05T04:29:52.723Z,1.00
2023-05-05T04:32:19.409Z,1.00
2023-05-05T04:34:46.712Z,1.00
2023-05-05T04:37:15.848Z,1.00
2023-05-05T04:39:42.527Z,1.00
2023-05-05T04:42:09.330Z,1.00
2023-05-05T04:44:38.798Z,1.00
2023-05-05T04:47:05.882Z,1.00
2023-05-05T04:49:32.570Z,1.00
2023-05-05T04:51:59.491Z,99.90
2023-05-05T04:54:26.263Z,99.90
2023-05-05T04:56:53.267Z,99.90
2023-05-05T04:59:19.907Z,1.00
2023-05-05T05:01:46.745Z,1.00
2023-05-05T05:04:13.897Z,99.90
2023-05-05T05:06:40.812Z,99.90
2023-05-05T05:09:07.570Z,99.90
2023-05-05T05:11:34.212Z,1.00
2023-05-05T05:14:01.024Z,1.00
2023-05-05T05:16:27.809Z,1.00
2023-05-05T05:18:57.702Z,1.00
2023-05-05T05:21:24.369Z,1.00
2023-05-05T05:23:51.130Z,66.30
2023-05-05T05:26:17.806Z,99.90
2023-05-05T05:28:44.551Z,99.90
2023-05-05T05:31:11.731Z,1.00
2023-05-05T05:33:38.376Z,96.10
2023-05-05T05:36:05.700Z,99.90
2023-05-05T05:38:32.344Z,1.00
2023-05-05T05:40:59.038Z,99.90
2023-05-05T05:43:25.684Z,1.00
2023-05-05T05:45:52.368Z,1.00
2023-05-05T05:48:19.037Z,99.90
2023-05-05T05:50:45.645Z,99.90
2023-05-05T05:53:12.288Z,99.90
2023-05-05T05:55:38.986Z,1.00
2023-05-05T05:58:06.088Z,99.90
2023-05-05T06:00:32.702Z,99.90
2023-05-05T06:02:59.424Z,1.00
2023-05-05T06:05:26.049Z,99.90
2023-05-05T06:07:52.680Z,99.90
2023-05-05T06:10:28.089Z,99.90
2023-05-05T06:12:55.302Z,99.90
2023-05-05T06:15:21.967Z,99.90
2023-05-05T06:17:48.775Z,99.90
2023-05-05T06:20:15.577Z,99.90
2023-05-05T06:22:42.326Z,99.90
2023-05-05T06:25:09.138Z,99.90
2023-05-05T06:27:35.893Z,99.90
2023-05-05T06:30:02.571Z,99.90
2023-05-05T06:32:36.549Z,99.90
2023-05-05T06:35:09.764Z,99.90
2023-05-05T06:37:39.502Z,99.90
2023-05-05T06:40:07.945Z,99.90
2023-05-05T06:42:35.901Z,99.90
2023-05-05T06:45:02.581Z,99.90
2023-05-05T06:47:31.579Z,99.90
2023-05-05T06:49:58.273Z,99.90
2023-05-05T06:52:25.919Z,99.90
2023-05-05T06:54:55.669Z,99.90
2023-05-05T06:57:22.791Z,99.90
2023-05-05T06:59:51.605Z,99.90
2023-05-05T07:02:18.520Z,99.90
2023-05-05T07:04:45.229Z,99.90
2023-05-05T07:07:12.155Z,99.90
2023-05-05T07:09:38.964Z,99.90
2023-05-05T07:12:05.798Z,99.90
2023-05-05T07:14:32.446Z,99.90
2023-05-05T07:16:59.188Z,99.90
2023-05-05T07:19:25.861Z,99.90
2023-05-05T07:21:52.503Z,99.90
2023-05-05T07:24:19.144Z,99.90
2023-05-05T07:26:46.127Z,99.90
2023-05-05T07:29:12.825Z,99.90
2023-05-05T07:31:39.563Z,99.90
2023-05-05T07:34:06.376Z,99.90
2023-05-05T07:36:33.073Z,99.90
2023-05-05T07:39:02.514Z,99.90
2023-05-05T07:41:29.268Z,99.90
2023-05-05T07:43:58.047Z,99.90
2023-05-05T07:46:24.726Z,99.90
2023-05-05T07:48:51.593Z,99.90
2023-05-05T07:51:18.270Z,99.90
2023-05-05T07:53:45.334Z,99.90
2023-05-05T07:56:11.943Z,99.90
2023-05-05T07:58:38.582Z,99.90
2023-05-05T08:01:06.526Z,99.90
2023-05-05T08:03:33.465Z,99.90
2023-05-05T08:06:21.876Z,99.90
2023-05-05T08:08:49.291Z,99.90
2023-05-05T08:11:16.790Z,99.90
2023-05-05T08:13:44.349Z,99.90
2023-05-05T08:16:11.797Z,99.90
2023-05-05T08:18:41.191Z,99.90
2023-05-05T08:21:08.797Z,99.90
2023-05-05T08:23:38.523Z,99.90
2023-05-05T08:26:06.519Z,99.90
2023-05-05T08:28:36.808Z,99.90
2023-05-05T08:31:07.435Z,99.90
2023-05-05T08:33:34.227Z,99.90
2023-05-05T08:36:01.197Z,99.90
2023-05-05T08:38:27.913Z,99.90
2023-05-05T08:40:54.611Z,99.90
2023-05-05T08:43:23.738Z,99.90
2023-05-05T08:45:51.559Z,99.90
2023-05-05T08:48:22.391Z,99.90
2023-05-05T08:51:00.800Z,99.90
2023-05-05T08:53:35.050Z,99.90
2023-05-05T08:56:04.595Z,99.90
2023-05-05T08:58:41.173Z,99.90
2023-05-05T09:01:08.081Z,99.90
2023-05-05T09:03:39.308Z,99.90
2023-05-05T09:06:10.050Z,99.90
2023-05-05T09:08:40.305Z,99.90
2023-05-05T09:11:07.218Z,99.90
2023-05-05T09:13:33.863Z,99.90
2023-05-05T09:16:00.817Z,99.90
2023-05-05T09:18:30.925Z,99.90
2023-05-05T09:20:59.562Z,99.90
2023-05-05T09:23:26.681Z,99.90
2023-05-05T09:26:08.853Z,99.90
2023-05-05T09:28:36.265Z,99.90
2023-05-05T09:31:20.452Z,99.90
2023-05-05T09:33:47.599Z,99.90
2023-05-05T09:36:14.627Z,99.90
2023-05-05T09:38:41.836Z,99.90
2023-05-05T09:41:08.549Z,99.90
2023-05-05T09:43:52.313Z,99.90
2023-05-05T09:46:19.277Z,99.90
2023-05-05T09:48:46.243Z,99.90
2023-05-05T09:51:16.308Z,99.90
2023-05-05T09:53:43.741Z,99.90
2023-05-05T09:56:10.546Z,99.90
2023-05-05T09:58:37.363Z,99.90
2023-05-05T10:01:06.789Z,99.90
2023-05-05T10:03:33.527Z,99.90
2023-05-05T10:06:01.138Z,99.90
2023-05-05T10:08:33.577Z,99.90
2023-05-05T10:11:04.958Z,99.90
2023-05-05T10:13:37.055Z,99.90
2023-05-05T10:16:05.865Z,99.90
2023-05-05T10:18:32.726Z,99.90
2023-05-05T10:21:01.290Z,99.90
2023-05-05T10:23:52.579Z,99.90
2023-05-05T10:26:28.179Z,99.90
2023-05-05T10:28:56.457Z,99.90
2023-05-05T10:31:52.583Z,99.90
2023-05-05T10:34:21.470Z,99.90
2023-05-05T10:36:49.533Z,99.90
2023-05-05T10:39:22.127Z,99.90
2023-05-05T10:41:49.775Z,99.90
2023-05-05T10:44:17.485Z,99.90
2023-05-05T10:46:44.902Z,99.90
2023-05-05T10:49:29.115Z,99.90
2023-05-05T10:52:08.463Z,99.90
2023-05-05T10:54:42.493Z,99.90
2023-05-05T10:57:10.772Z,99.90
2023-05-05T10:59:40.464Z,99.90
2023-05-05T11:02:30.434Z,99.90
2023-05-05T11:05:23.301Z,99.90
2023-05-05T11:07:51.488Z,99.90
2023-05-05T11:10:20.965Z,99.90
2023-05-05T11:12:59.098Z,99.90
2023-05-05T11:15:31.685Z,99.90
2023-05-05T11:18:05.663Z,99.90
2023-05-05T11:20:37.020Z,99.90
2023-05-05T11:23:13.985Z,99.90
2023-05-05T11:25:48.196Z,99.90
2023-05-05T11:28:17.686Z,99.90
2023-05-05T11:30:57.557Z,99.90
2023-05-05T11:33:30.840Z,99.90
2023-05-05T11:36:20.050Z,99.90
2023-05-05T11:39:09.904Z,99.90
2023-05-05T11:42:11.402Z,99.90
2023-05-05T11:44:41.892Z,99.90
2023-05-05T11:47:09.664Z,99.90
2023-05-05T11:49:39.837Z,99.90
2023-05-05T11:52:14.680Z,99.90
2023-05-05T11:54:50.356Z,99.90
2023-05-05T11:57:28.453Z,99.90
2023-05-05T12:00:08.977Z,99.90
2023-05-05T12:02:36.526Z,99.90
2023-05-05T12:05:04.130Z,99.90
2023-05-05T12:07:33.373Z,99.90
2023-05-05T12:10:00.992Z,99.90
2023-05-05T12:12:36.174Z,99.90
2023-05-05T12:15:03.283Z,99.90
2023-05-05T12:17:37.891Z,99.90
2023-05-05T12:20:07.451Z,99.90
2023-05-05T12:22:34.633Z,99.90
2023-05-05T12:25:06.666Z,99.90
2023-05-05T12:27:35.234Z,99.90
2023-05-05T12:30:15.344Z,99.90
2023-05-05T12:32:43.574Z,99.90
2023-05-05T12:35:11.056Z,99.90
2023-05-05T12:37:38.431Z,99.90
2023-05-05T12:40:10.993Z,99.90
2023-05-05T12:42:43.587Z,99.90
2023-05-05T12:45:22.508Z,99.90
2023-05-05T12:47:49.150Z,99.90
2023-05-05T12:50:32.535Z,99.90
2023-05-05T12:52:59.219Z,99.90
2023-05-05T12:55:39.987Z,99.90
2023-05-05T12:58:06.917Z,99.90
2023-05-05T13:00:33.741Z,99.90
2023-05-05T13:03:01.405Z,99.90
2023-05-05T13:05:32.730Z,99.90
2023-05-05T13:08:00.837Z,99.90
2023-05-05T13:10:28.326Z,99.90
2023-05-05T13:12:58.986Z,99.90
2023-05-05T13:15:26.153Z,99.90
2023-05-05T13:18:02.616Z,99.90
2023-05-05T13:20:29.427Z,99.90
2023-05-05T13:22:56.197Z,99.90
2023-05-05T13:25:23.126Z,99.90
2023-05-05T13:27:49.777Z,99.90
2023-05-05T13:30:21.508Z,99.90
2023-05-05T13:32:48.238Z,99.90
2023-05-05T13:35:16.346Z,99.90
2023-05-05T13:37:44.288Z,99.90
2023-05-05T13:40:13.202Z,99.90
2023-05-05T13:42:39.863Z,99.90
2023-05-05T13:45:07.111Z,99.90
2023-05-05T13:47:34.137Z,99.90
2023-05-05T13:50:00.826Z,99.90
2023-05-05T13:52:29.012Z,99.90
2023-05-05T13:54:57.183Z,99.90
2023-05-05T13:57:24.189Z,99.90
2023-05-05T13:59:52.149Z,99.90
2023-05-05T14:02:18.915Z,99.90
2023-05-05T14:04:47.185Z,99.90
2023-05-05T14:07:13.876Z,99.90
2023-05-05T14:09:40.585Z,99.90
2023-05-05T14:12:07.345Z,99.90
2023-05-05T14:14:34.418Z,99.90
2023-05-05T14:17:01.140Z,99.90
2023-05-05T14:19:27.937Z,99.90
2023-05-05T14:21:54.628Z,99.90
2023-05-05T14:24:21.272Z,99.90
2023-05-05T14:26:48.021Z,99.90
2023-05-05T14:29:16.846Z,99.90
2023-05-05T14:31:43.497Z,99.90
2023-05-05T14:34:10.176Z,99.90
2023-05-05T14:36:37.272Z,99.90
2023-05-05T14:39:07.308Z,99.90
2023-05-05T14:41:34.033Z,99.90
2023-05-05T14:44:01.032Z,99.90
2023-05-05T14:46:31.280Z,99.90
2023-05-05T14:48:58.674Z,99.90
2023-05-05T14:51:25.529Z,99.90
2023-05-05T14:53:54.759Z,99.90
2023-05-05T14:56:22.727Z,99.90
2023-05-05T14:58:49.554Z,99.90
2023-05-05T15:01:16.647Z,99.90
2023-05-05T15:03:43.456Z,99.90
2023-05-05T15:06:10.190Z,99.90
2023-05-05T15:08:38.860Z,99.90
2023-05-05T15:11:06.262Z,99.90
2023-05-05T15:13:32.970Z,99.90
2023-05-05T15:15:59.682Z,99.90
2023-05-05T15:18:26.352Z,99.90
2023-05-05T15:20:56.120Z,99.90
2023-05-05T15:23:27.758Z,99.90
2023-05-05T15:25:54.432Z,99.90
2023-05-05T15:28:21.095Z,99.90
2023-05-05T15:30:47.738Z,99.90
2023-05-05T15:33:14.386Z,99.90
2023-05-05T15:35:41.018Z,99.90
2023-05-05T15:38:07.738Z,99.90
2023-05-05T15:40:34.538Z,99.90
2023-05-05T15:43:01.378Z,99.90
2023-05-05T15:45:31.044Z,99.90
2023-05-05T15:47:57.723Z,99.90
2023-05-05T15:50:24.402Z,99.90
2023-05-05T15:52:51.100Z,99.90
2023-05-05T15:55:20.154Z,99.90
2023-05-05T15:57:47.301Z,99.90
2023-05-05T16:00:16.779Z,99.90
2023-05-05T16:02:43.489Z,99.90
2023-05-05T16:05:10.876Z,99.90
2023-05-05T16:07:37.948Z,99.90
2023-05-05T16:10:08.414Z,99.90
2023-05-05T16:12:35.056Z,99.90
2023-05-05T16:15:01.940Z,99.90
2023-05-05T16:17:28.595Z,99.90
2023-05-05T16:19:55.833Z,99.90
2023-05-05T16:22:22.537Z,99.90
2023-05-05T16:24:49.277Z,99.90
2023-05-05T16:27:18.752Z,99.90
2023-05-05T16:29:45.503Z,99.90
2023-05-05T16:32:13.126Z,99.90
2023-05-05T16:34:39.808Z,99.90
2023-05-05T16:37:06.660Z,99.90
2023-05-05T16:39:33.882Z,99.90
2023-05-05T16:42:00.521Z,99.90
2023-05-05T16:44:27.101Z,99.90
2023-05-05T16:46:53.713Z,99.90
2023-05-05T16:49:20.458Z,99.90
2023-05-05T16:51:47.101Z,99.90
2023-05-05T16:54:13.733Z,99.90
2023-05-05T16:56:40.434Z,99.90
2023-05-05T16:59:07.120Z,99.90
2023-05-05T17:01:34.869Z,99.90
2023-05-05T17:04:03.046Z,99.90
2023-05-05T17:06:33.116Z,99.90
2023-05-05T17:09:00.046Z,99.90
2023-05-05T17:11:26.662Z,99.90
2023-05-05T17:13:53.466Z,99.90
2023-05-05T17:16:22.267Z,99.90
2023-05-05T17:18:54.211Z,99.90
2023-05-05T17:21:21.348Z,99.90
2023-05-05T17:23:47.968Z,99.90
2023-05-05T17:26:14.907Z,99.90
2023-05-05T17:28:41.882Z,99.90
2023-05-05T17:31:08.531Z,99.90
2023-05-05T17:33:35.191Z,99.90
2023-05-05T17:36:02.012Z,99.90
2023-05-05T17:38:28.825Z,99.90
2023-05-05T17:40:59.738Z,99.90
2023-05-05T17:43:26.647Z,99.90
2023-05-05T17:45:53.599Z,99.90
2023-05-05T17:48:21.543Z,99.90
2023-05-05T17:50:48.510Z,99.90
2023-05-05T17:53:16.357Z,99.90
2023-05-05T17:55:48.283Z,99.90
2023-05-05T17:58:15.057Z,99.90
2023-05-05T18:00:41.754Z,99.90
2023-05-05T18:03:08.445Z,99.90
2023-05-05T18:05:36.258Z,99.90
2023-05-05T18:08:03.110Z,99.90
2023-05-05T18:10:29.908Z,1.00
2023-05-05T18:12:57.276Z,1.00
2023-05-05T18:15:24.082Z,1.00
2023-05-05T18:17:50.847Z,1.00
2023-05-05T18:20:18.311Z,1.00
2023-05-05T18:22:45.730Z,1.00
2023-05-05T18:25:12.611Z,1.00
2023-05-05T18:27:40.986Z,1.00
2023-05-05T18:30:08.411Z,1.00
2023-05-05T18:32:35.457Z,1.00
2023-05-05T18:35:02.242Z,1.00
2023-05-05T18:37:29.216Z,73.70
2023-05-05T18:39:57.096Z,99.90
2023-05-05T18:42:23.845Z,99.90
2023-05-05T18:44:50.624Z,99.90
2023-05-05T18:47:17.291Z,99.90
2023-05-05T18:49:45.281Z,99.90
2023-05-05T18:52:13.095Z,99.90
2023-05-05T18:54:39.830Z,99.90
2023-05-05T18:57:09.101Z,1.00
2023-05-05T18:59:38.104Z,1.00
2023-05-05T19:02:04.846Z,1.00
2023-05-05T19:04:32.644Z,99.90
2023-05-05T19:07:00.449Z,99.90
2023-05-05T19:09:27.796Z,1.00
2023-05-05T19:11:55.781Z,1.00
2023-05-05T19:14:26.781Z,1.00
2023-05-05T19:16:55.840Z,1.00
2023-05-05T19:19:22.878Z,1.00
2023-05-05T19:21:49.486Z,1.00
2023-05-05T19:24:16.429Z,1.00
2023-05-05T19:26:46.159Z,1.00
2023-05-05T19:29:13.308Z,1.00
2023-05-05T19:31:40.160Z,1.00
2023-05-05T19:34:06.936Z,1.00
2023-05-05T19:36:34.592Z,1.00
2023-05-05T19:39:03.014Z,1.00
2023-05-05T19:41:30.745Z,1.00
2023-05-05T19:43:58.425Z,1.00
2023-05-05T19:46:28.075Z,54.50
2023-05-05T19:48:54.820Z,99.90
2023-05-05T19:51:22.507Z,99.90
2023-05-05T19:53:50.120Z,99.90
2023-05-05T19:56:17.139Z,99.90
2023-05-05T19:59:06.249Z,99.90
2023-05-05T20:01:34.009Z,99.90
2023-05-05T20:04:01.076Z,99.90
2023-05-05T20:06:27.912Z,99.90
2023-05-05T20:08:55.441Z,99.90
2023-05-05T20:11:22.350Z,99.90
2023-05-05T20:13:52.203Z,99.90
2023-05-05T20:16:19.691Z,1.00
2023-05-05T20:18:46.566Z,1.00
2023-05-05T20:21:14.074Z,99.90
2023-05-05T20:23:43.249Z,1.00
2023-05-05T20:26:12.435Z,1.00
2023-05-05T20:28:40.410Z,99.90
2023-05-05T20:31:10.217Z,99.90
2023-05-05T20:33:39.072Z,1.00
2023-05-05T20:36:07.225Z,1.00
2023-05-05T20:38:37.124Z,99.90
2023-05-05T20:41:03.969Z,99.90
2023-05-05T20:43:30.680Z,60.10
2023-05-05T20:45:57.352Z,1.00
2023-05-05T20:48:24.012Z,1.00
2023-05-05T20:50:51.274Z,1.00
2023-05-05T20:53:19.114Z,99.90
2023-05-05T20:55:46.020Z,99.90
2023-05-05T20:58:17.552Z,99.90
2023-05-05T21:00:44.299Z,99.90
2023-05-05T21:03:11.595Z,99.90
2023-05-05T21:05:39.594Z,1.00
2023-05-05T21:08:06.642Z,1.00
2023-05-05T21:10:33.688Z,99.90
2023-05-05T21:13:04.841Z,94.60
2023-05-05T21:15:31.886Z,49.10
2023-05-05T21:17:58.719Z,99.90
2023-05-05T21:20:25.391Z,32.60
2023-05-05T21:22:52.405Z,68.30
2023-05-05T21:25:20.988Z,1.00
2023-05-05T21:27:48.459Z,1.00
2023-05-05T21:30:16.621Z,99.90
2023-05-05T21:32:43.715Z,99.90
2023-05-05T21:35:10.687Z,99.90
2023-05-05T21:37:39.059Z,99.90
2023-05-05T21:40:13.634Z,99.90
2023-05-05T21:42:41.254Z,1.00
2023-05-05T21:45:08.587Z,1.00
2023-05-05T21:47:35.310Z,1.00
2023-05-05T21:50:02.242Z,1.00
2023-05-05T21:52:28.968Z,1.00
2023-05-05T21:54:55.898Z,1.00
2023-05-05T21:57:22.517Z,1.00
2023-05-05T21:59:49.156Z,1.00
2023-05-05T22:02:15.959Z,1.00
2023-05-05T22:04:46.208Z,1.00
2023-05-05T22:07:12.857Z,1.00
2023-05-05T22:09:39.533Z,99.90
2023-05-05T22:12:06.324Z,99.90
2023-05-05T22:14:33.000Z,1.00
2023-05-05T22:17:01.678Z,99.90
2023-05-05T22:19:28.301Z,1.00
2023-05-05T22:21:55.541Z,99.90
2023-05-05T22:24:22.165Z,99.90
2023-05-05T22:26:48.814Z,1.00
2023-05-05T22:29:18.536Z,99.90
2023-05-05T22:31:47.662Z,1.00
2023-05-05T22:34:15.811Z,1.00
2023-05-05T22:36:42.431Z,1.00
2023-05-05T22:39:09.119Z,99.90
2023-05-05T22:41:35.846Z,99.90
2023-05-05T22:44:02.622Z,99.90
2023-05-05T22:46:29.280Z,99.90
2023-05-05T22:48:55.971Z,99.90
2023-05-05T22:51:23.756Z,1.00
2023-05-05T22:53:53.406Z,1.00
2023-05-05T22:56:20.073Z,1.00
2023-05-05T22:58:49.814Z,1.00
2023-05-05T23:01:16.529Z,1.00
2023-05-05T23:03:43.191Z,1.00
2023-05-05T23:06:09.907Z,1.00
2023-05-05T23:08:36.573Z,1.00
2023-05-05T23:11:03.214Z,1.00
2023-05-05T23:13:29.828Z,1.00
2023-05-05T23:15:56.457Z,1.00
2023-05-05T23:18:23.120Z,1.00
2023-05-05T23:20:49.770Z,1.00
2023-05-05T23:23:19.275Z,1.00
2023-05-05T23:25:45.956Z,1.00
2023-05-05T23:28:12.603Z,1.00
2023-05-05T23:30:46.649Z,1.00
2023-05-05T23:33:13.344Z,1.00
2023-05-05T23:35:43.227Z,99.90
2023-05-05T23:38:12.478Z,99.90
2023-05-05T23:40:41.942Z,99.90
2023-05-05T23:43:08.631Z,99.90
2023-05-05T23:45:37.323Z,99.90
2023-05-05T23:48:04.108Z,1.00
2023-05-05T23:50:30.864Z,1.00
2023-05-05T23:52:57.557Z,1.00
2023-05-05T23:55:24.312Z,1.00
2023-05-05T23:57:52.979Z,1.00
